sensor_id;sensor_type;location;lat;lon;timestamp;P1;durP1;ratioP1;P2;durP2;ratioP2
1020;SDS011;499;42.648;23.270;2022-07-04T00:01:52;14.50;;;13.40;;
1020;SDS011;499;42.648;23.270;2022-07-04T00:04:19;15.47;;;14.07;;
1020;SDS011;499;42.648;23.270;2022-07-04T00:06:46;14.67;;;13.57;;
1020;SDS011;499;42.648;23.270;2022-07-04T00:09:13;15.70;;;14.30;;
1020;SDS011;499;42.648;23.270;2022-07-04T00:11:40;15.67;;;14.37;;
1020;SDS011;499;42.648;23.270;2022-07-04T00:14:07;14.03;;;12.93;;
1020;SDS011;499;42.648;23.270;2022-07-04T00:16:36;14.87;;;13.57;;
1020;SDS011;499;42.648;23.270;2022-07-04T00:19:03;15.40;;;14.18;;
1020;SDS011;499;42.648;23.270;2022-07-04T00:21:30;14.80;;;13.43;;
1020;SDS011;499;42.648;23.270;2022-07-04T00:23:57;15.33;;;14.10;;
1020;SDS011;499;42.648;23.270;2022-07-04T00:26:24;15.33;;;14.00;;
1020;SDS011;499;42.648;23.270;2022-07-04T00:28:51;15.10;;;13.87;;
1020;SDS011;499;42.648;23.270;2022-07-04T00:31:18;13.50;;;12.27;;
1020;SDS011;499;42.648;23.270;2022-07-04T00:33:47;15.17;;;13.90;;
1020;SDS011;499;42.648;23.270;2022-07-04T00:36:14;15.03;;;13.83;;
1020;SDS011;499;42.648;23.270;2022-07-04T00:38:41;14.20;;;13.10;;
1020;SDS011;499;42.648;23.270;2022-07-04T00:41:08;14.63;;;13.43;;
1020;SDS011;499;42.648;23.270;2022-07-04T00:43:35;13.23;;;12.13;;
1020;SDS011;499;42.648;23.270;2022-07-04T00:46:03;14.50;;;13.40;;
1020;SDS011;499;42.648;23.270;2022-07-04T00:48:31;13.87;;;12.87;;
1020;SDS011;499;42.648;23.270;2022-07-04T00:50:59;14.17;;;13.03;;
1020;SDS011;499;42.648;23.270;2022-07-04T00:53:26;15.00;;;13.70;;
1020;SDS011;499;42.648;23.270;2022-07-04T00:55:54;13.70;;;12.70;;
1020;SDS011;499;42.648;23.270;2022-07-04T00:58:22;14.60;;;13.30;;
1020;SDS011;499;42.648;23.270;2022-07-04T01:00:49;13.93;;;12.87;;
1020;SDS011;499;42.648;23.270;2022-07-04T01:03:17;14.40;;;12.90;;
1020;SDS011;499;42.648;23.270;2022-07-04T01:05:44;14.70;;;13.37;;
1020;SDS011;499;42.648;23.270;2022-07-04T01:08:13;14.30;;;13.10;;
1020;SDS011;499;42.648;23.270;2022-07-04T01:10:41;13.73;;;12.63;;
1020;SDS011;499;42.648;23.270;2022-07-04T01:13:08;15.20;;;14.00;;
1020;SDS011;499;42.648;23.270;2022-07-04T01:15:44;15.50;;;14.20;;
1020;SDS011;499;42.648;23.270;2022-07-04T01:18:11;14.17;;;12.83;;
1020;SDS011;499;42.648;23.270;2022-07-04T01:20:40;15.18;;;14.07;;
1020;SDS011;499;42.648;23.270;2022-07-04T01:23:07;15.60;;;14.30;;
1020;SDS011;499;42.648;23.270;2022-07-04T01:25:34;14.07;;;12.97;;
1020;SDS011;499;42.648;23.270;2022-07-04T01:28:02;16.00;;;14.60;;
1020;SDS011;499;42.648;23.270;2022-07-04T01:30:32;14.47;;;13.30;;
1020;SDS011;499;42.648;23.270;2022-07-04T01:32:59;14.53;;;13.33;;
1020;SDS011;499;42.648;23.270;2022-07-04T01:35:26;15.43;;;14.00;;
1020;SDS011;499;42.648;23.270;2022-07-04T01:37:55;14.25;;;13.05;;
1020;SDS011;499;42.648;23.270;2022-07-04T01:40:23;16.10;;;14.60;;
1020;SDS011;499;42.648;23.270;2022-07-04T01:42:50;14.97;;;13.87;;
1020;SDS011;499;42.648;23.270;2022-07-04T01:45:17;14.77;;;13.37;;
1020;SDS011;499;42.648;23.270;2022-07-04T01:47:44;15.40;;;14.20;;
1020;SDS011;499;42.648;23.270;2022-07-04T01:50:12;15.30;;;14.00;;
1020;SDS011;499;42.648;23.270;2022-07-04T01:52:39;15.20;;;13.90;;
1020;SDS011;499;42.648;23.270;2022-07-04T01:55:08;14.40;;;13.17;;
1020;SDS011;499;42.648;23.270;2022-07-04T01:57:36;15.90;;;14.60;;
1020;SDS011;499;42.648;23.270;2022-07-04T02:00:05;15.40;;;14.20;;
1020;SDS011;499;42.648;23.270;2022-07-04T02:02:50;15.77;;;14.27;;
1020;SDS011;499;42.648;23.270;2022-07-04T02:05:17;16.43;;;15.13;;
1020;SDS011;499;42.648;23.270;2022-07-04T02:07:44;15.23;;;13.93;;
1020;SDS011;499;42.648;23.270;2022-07-04T02:10:13;15.33;;;14.13;;
1020;SDS011;499;42.648;23.270;2022-07-04T02:12:40;14.27;;;13.17;;
1020;SDS011;499;42.648;23.270;2022-07-04T02:15:25;14.47;;;13.27;;
1020;SDS011;499;42.648;23.270;2022-07-04T02:17:53;15.10;;;13.90;;
1020;SDS011;499;42.648;23.270;2022-07-04T02:20:20;15.37;;;14.07;;
1020;SDS011;499;42.648;23.270;2022-07-04T02:22:47;14.60;;;13.43;;
1020;SDS011;499;42.648;23.270;2022-07-04T02:25:16;15.20;;;14.00;;
1020;SDS011;499;42.648;23.270;2022-07-04T02:27:43;14.17;;;13.00;;
1020;SDS011;499;42.648;23.270;2022-07-04T02:30:10;14.63;;;13.43;;
1020;SDS011;499;42.648;23.270;2022-07-04T02:32:38;15.27;;;14.07;;
1020;SDS011;499;42.648;23.270;2022-07-04T02:35:06;15.27;;;13.80;;
1020;SDS011;499;42.648;23.270;2022-07-04T02:37:34;15.23;;;13.93;;
1020;SDS011;499;42.648;23.270;2022-07-04T02:40:04;13.70;;;12.60;;
1020;SDS011;499;42.648;23.270;2022-07-04T02:42:34;15.23;;;13.90;;
1020;SDS011;499;42.648;23.270;2022-07-04T02:45:02;15.63;;;14.27;;
1020;SDS011;499;42.648;23.270;2022-07-04T02:47:30;14.40;;;13.20;;
1020;SDS011;499;42.648;23.270;2022-07-04T02:49:57;13.93;;;12.80;;
1020;SDS011;499;42.648;23.270;2022-07-04T02:52:27;14.87;;;13.77;;
1020;SDS011;499;42.648;23.270;2022-07-04T02:54:54;14.67;;;13.37;;
1020;SDS011;499;42.648;23.270;2022-07-04T02:57:22;14.33;;;13.13;;
1020;SDS011;499;42.648;23.270;2022-07-04T02:59:50;14.20;;;12.95;;
1020;SDS011;499;42.648;23.270;2022-07-04T03:02:17;13.43;;;12.33;;
1020;SDS011;499;42.648;23.270;2022-07-04T03:04:44;13.23;;;12.17;;
1020;SDS011;499;42.648;23.270;2022-07-04T03:07:11;12.10;;;11.20;;
1020;SDS011;499;42.648;23.270;2022-07-04T03:09:39;11.97;;;10.97;;
1020;SDS011;499;42.648;23.270;2022-07-04T03:12:06;12.63;;;11.57;;
1020;SDS011;499;42.648;23.270;2022-07-04T03:14:34;11.80;;;10.70;;
1020;SDS011;499;42.648;23.270;2022-07-04T03:17:02;12.17;;;11.10;;
1020;SDS011;499;42.648;23.270;2022-07-04T03:19:29;11.80;;;10.70;;
1020;SDS011;499;42.648;23.270;2022-07-04T03:21:56;12.90;;;11.90;;
1020;SDS011;499;42.648;23.270;2022-07-04T03:24:23;11.90;;;10.90;;
1020;SDS011;499;42.648;23.270;2022-07-04T03:26:50;13.30;;;12.20;;
1020;SDS011;499;42.648;23.270;2022-07-04T03:29:18;12.30;;;11.10;;
1020;SDS011;499;42.648;23.270;2022-07-04T03:31:45;11.43;;;10.43;;
1020;SDS011;499;42.648;23.270;2022-07-04T03:34:13;10.00;;;9.10;;
1020;SDS011;499;42.648;23.270;2022-07-04T03:36:40;9.53;;;8.73;;
1020;SDS011;499;42.648;23.270;2022-07-04T03:39:08;10.40;;;9.50;;
1020;SDS011;499;42.648;23.270;2022-07-04T03:41:35;10.20;;;9.20;;
1020;SDS011;499;42.648;23.270;2022-07-04T03:44:02;8.97;;;8.27;;
1020;SDS011;499;42.648;23.270;2022-07-04T03:46:29;10.33;;;9.27;;
1020;SDS011;499;42.648;23.270;2022-07-04T03:48:56;8.93;;;8.23;;
1020;SDS011;499;42.648;23.270;2022-07-04T03:51:25;10.10;;;9.30;;
1020;SDS011;499;42.648;23.270;2022-07-04T03:53:52;9.67;;;8.73;;
1020;SDS011;499;42.648;23.270;2022-07-04T03:56:20;10.03;;;9.23;;
1020;SDS011;499;42.648;23.270;2022-07-04T03:58:47;9.20;;;8.50;;
1020;SDS011;499;42.648;23.270;2022-07-04T04:01:14;8.77;;;8.07;;
1020;SDS011;499;42.648;23.270;2022-07-04T04:03:42;9.63;;;8.63;;
1020;SDS011;499;42.648;23.270;2022-07-04T04:06:28;9.33;;;8.43;;
1020;SDS011;499;42.648;23.270;2022-07-04T04:08:56;9.10;;;8.25;;
1020;SDS011;499;42.648;23.270;2022-07-04T04:11:23;9.50;;;7.90;;
1020;SDS011;499;42.648;23.270;2022-07-04T04:13:50;8.47;;;7.77;;
1020;SDS011;499;42.648;23.270;2022-07-04T04:16:17;9.10;;;8.27;;
1020;SDS011;499;42.648;23.270;2022-07-04T04:18:44;9.23;;;8.43;;
1020;SDS011;499;42.648;23.270;2022-07-04T04:21:11;8.67;;;7.90;;
1020;SDS011;499;42.648;23.270;2022-07-04T04:23:39;10.47;;;9.30;;
1020;SDS011;499;42.648;23.270;2022-07-04T04:26:06;8.70;;;7.82;;
1020;SDS011;499;42.648;23.270;2022-07-04T04:28:34;8.87;;;8.10;;
1020;SDS011;499;42.648;23.270;2022-07-04T04:31:01;12.27;;;8.90;;
1020;SDS011;499;42.648;23.270;2022-07-04T04:33:28;9.07;;;8.13;;
1020;SDS011;499;42.648;23.270;2022-07-04T04:35:55;9.00;;;8.13;;
1020;SDS011;499;42.648;23.270;2022-07-04T04:38:22;7.70;;;7.10;;
1020;SDS011;499;42.648;23.270;2022-07-04T04:40:50;7.80;;;7.17;;
1020;SDS011;499;42.648;23.270;2022-07-04T04:43:17;8.68;;;7.97;;
1020;SDS011;499;42.648;23.270;2022-07-04T04:45:45;8.50;;;7.90;;
1020;SDS011;499;42.648;23.270;2022-07-04T04:48:12;8.83;;;8.03;;
1020;SDS011;499;42.648;23.270;2022-07-04T04:50:39;8.50;;;7.80;;
1020;SDS011;499;42.648;23.270;2022-07-04T04:53:06;8.57;;;7.40;;
1020;SDS011;499;42.648;23.270;2022-07-04T04:55:33;8.73;;;7.93;;
1020;SDS011;499;42.648;23.270;2022-07-04T04:58:02;7.77;;;7.07;;
1020;SDS011;499;42.648;23.270;2022-07-04T05:00:29;8.23;;;7.43;;
1020;SDS011;499;42.648;23.270;2022-07-04T05:02:56;13.40;;;7.40;;
1020;SDS011;499;42.648;23.270;2022-07-04T05:05:24;9.25;;;8.40;;
1020;SDS011;499;42.648;23.270;2022-07-04T05:07:51;8.93;;;8.02;;
1020;SDS011;499;42.648;23.270;2022-07-04T05:10:18;9.00;;;8.20;;
1020;SDS011;499;42.648;23.270;2022-07-04T05:12:45;9.40;;;8.50;;
1020;SDS011;499;42.648;23.270;2022-07-04T05:15:14;10.43;;;8.30;;
1020;SDS011;499;42.648;23.270;2022-07-04T05:17:41;10.13;;;8.90;;
1020;SDS011;499;42.648;23.270;2022-07-04T05:20:08;12.17;;;9.07;;
1020;SDS011;499;42.648;23.270;2022-07-04T05:22:36;9.33;;;8.50;;
1020;SDS011;499;42.648;23.270;2022-07-04T05:25:03;8.77;;;7.97;;
1020;SDS011;499;42.648;23.270;2022-07-04T05:27:31;8.50;;;7.70;;
1020;SDS011;499;42.648;23.270;2022-07-04T05:29:58;8.60;;;7.80;;
1020;SDS011;499;42.648;23.270;2022-07-04T05:32:27;8.13;;;6.97;;
1020;SDS011;499;42.648;23.270;2022-07-04T05:34:54;9.40;;;8.50;;
1020;SDS011;499;42.648;23.270;2022-07-04T05:37:21;8.57;;;7.83;;
1020;SDS011;499;42.648;23.270;2022-07-04T05:39:48;10.43;;;8.47;;
1020;SDS011;499;42.648;23.270;2022-07-04T05:42:15;8.13;;;7.43;;
1020;SDS011;499;42.648;23.270;2022-07-04T05:44:43;11.33;;;8.33;;
1020;SDS011;499;42.648;23.270;2022-07-04T05:47:10;9.47;;;8.53;;
1020;SDS011;499;42.648;23.270;2022-07-04T05:49:39;9.27;;;7.83;;
1020;SDS011;499;42.648;23.270;2022-07-04T05:52:06;9.07;;;8.27;;
1020;SDS011;499;42.648;23.270;2022-07-04T05:54:33;8.90;;;8.00;;
1020;SDS011;499;42.648;23.270;2022-07-04T05:57:00;9.03;;;8.13;;
1020;SDS011;499;42.648;23.270;2022-07-04T05:59:27;10.53;;;8.03;;
1020;SDS011;499;42.648;23.270;2022-07-04T06:01:55;8.80;;;8.00;;
1020;SDS011;499;42.648;23.270;2022-07-04T06:04:22;10.10;;;8.67;;
1020;SDS011;499;42.648;23.270;2022-07-04T06:06:50;9.77;;;8.70;;
1020;SDS011;499;42.648;23.270;2022-07-04T06:09:18;9.70;;;8.73;;
1020;SDS011;499;42.648;23.270;2022-07-04T06:11:45;10.30;;;9.20;;
1020;SDS011;499;42.648;23.270;2022-07-04T06:14:12;10.50;;;9.10;;
1020;SDS011;499;42.648;23.270;2022-07-04T06:16:39;9.60;;;8.60;;
1020;SDS011;499;42.648;23.270;2022-07-04T06:19:06;14.13;;;8.57;;
1020;SDS011;499;42.648;23.270;2022-07-04T06:21:33;14.85;;;8.25;;
1020;SDS011;499;42.648;23.270;2022-07-04T06:24:02;11.87;;;8.40;;
1020;SDS011;499;42.648;23.270;2022-07-04T06:26:30;8.83;;;7.93;;
1020;SDS011;499;42.648;23.270;2022-07-04T06:28:57;9.43;;;8.40;;
1020;SDS011;499;42.648;23.270;2022-07-04T06:31:24;8.00;;;7.30;;
1020;SDS011;499;42.648;23.270;2022-07-04T06:33:51;12.73;;;7.80;;
1020;SDS011;499;42.648;23.270;2022-07-04T06:36:35;9.90;;;7.40;;
1020;SDS011;499;42.648;23.270;2022-07-04T06:39:04;9.87;;;7.60;;
1020;SDS011;499;42.648;23.270;2022-07-04T06:41:31;8.13;;;7.13;;
1020;SDS011;499;42.648;23.270;2022-07-04T06:43:58;8.93;;;8.02;;
1020;SDS011;499;42.648;23.270;2022-07-04T06:46:25;10.93;;;8.87;;
1020;SDS011;499;42.648;23.270;2022-07-04T06:48:52;9.57;;;8.23;;
1020;SDS011;499;42.648;23.270;2022-07-04T06:51:19;10.23;;;8.60;;
1020;SDS011;499;42.648;23.270;2022-07-04T06:53:46;11.20;;;8.57;;
1020;SDS011;499;42.648;23.270;2022-07-04T06:56:15;9.67;;;7.97;;
1020;SDS011;499;42.648;23.270;2022-07-04T06:58:43;8.93;;;7.90;;
1020;SDS011;499;42.648;23.270;2022-07-04T07:01:10;10.73;;;7.47;;
1020;SDS011;499;42.648;23.270;2022-07-04T07:03:37;10.27;;;8.27;;
1020;SDS011;499;42.648;23.270;2022-07-04T07:06:04;9.23;;;7.38;;
1020;SDS011;499;42.648;23.270;2022-07-04T07:08:31;9.83;;;8.83;;
1020;SDS011;499;42.648;23.270;2022-07-04T07:10:58;8.67;;;7.77;;
1020;SDS011;499;42.648;23.270;2022-07-04T07:13:39;9.37;;;8.40;;
1020;SDS011;499;42.648;23.270;2022-07-04T07:16:06;11.25;;;8.48;;
1020;SDS011;499;42.648;23.270;2022-07-04T07:18:33;10.30;;;8.40;;
1020;SDS011;499;42.648;23.270;2022-07-04T07:21:00;9.57;;;8.60;;
1020;SDS011;499;42.648;23.270;2022-07-04T07:23:28;8.87;;;7.97;;
1020;SDS011;499;42.648;23.270;2022-07-04T07:25:55;8.90;;;8.00;;
1020;SDS011;499;42.648;23.270;2022-07-04T07:28:22;8.67;;;7.83;;
1020;SDS011;499;42.648;23.270;2022-07-04T07:30:50;9.50;;;8.50;;
1020;SDS011;499;42.648;23.270;2022-07-04T07:33:17;9.63;;;8.60;;
1020;SDS011;499;42.648;23.270;2022-07-04T07:35:45;9.13;;;8.32;;
1020;SDS011;499;42.648;23.270;2022-07-04T07:38:12;11.43;;;8.37;;
1020;SDS011;499;42.648;23.270;2022-07-04T07:40:39;10.20;;;9.10;;
1020;SDS011;499;42.648;23.270;2022-07-04T07:43:06;8.47;;;7.70;;
1020;SDS011;499;42.648;23.270;2022-07-04T07:45:34;9.65;;;8.32;;
1020;SDS011;499;42.648;23.270;2022-07-04T07:48:02;11.37;;;8.57;;
1020;SDS011;499;42.648;23.270;2022-07-04T07:50:30;9.70;;;8.60;;
1020;SDS011;499;42.648;23.270;2022-07-04T07:52:57;9.53;;;8.60;;
1020;SDS011;499;42.648;23.270;2022-07-04T07:55:24;10.50;;;9.50;;
1020;SDS011;499;42.648;23.270;2022-07-04T07:57:51;9.50;;;8.50;;
1020;SDS011;499;42.648;23.270;2022-07-04T08:00:19;8.50;;;7.70;;
1020;SDS011;499;42.648;23.270;2022-07-04T08:02:46;10.07;;;8.40;;
1020;SDS011;499;42.648;23.270;2022-07-04T08:05:32;14.95;;;7.47;;
1020;SDS011;499;42.648;23.270;2022-07-04T08:07:59;8.33;;;7.50;;
1020;SDS011;499;42.648;23.270;2022-07-04T08:10:26;9.20;;;8.30;;
1020;SDS011;499;42.648;23.270;2022-07-04T08:12:53;17.23;;;7.93;;
1020;SDS011;499;42.648;23.270;2022-07-04T08:15:21;9.20;;;8.33;;
1020;SDS011;499;42.648;23.270;2022-07-04T08:17:48;11.07;;;9.50;;
1020;SDS011;499;42.648;23.270;2022-07-04T08:20:15;8.90;;;8.10;;
1020;SDS011;499;42.648;23.270;2022-07-04T08:22:44;9.50;;;8.63;;
1020;SDS011;499;42.648;23.270;2022-07-04T08:25:11;10.37;;;8.73;;
1020;SDS011;499;42.648;23.270;2022-07-04T08:27:39;9.75;;;8.75;;
1020;SDS011;499;42.648;23.270;2022-07-04T08:30:06;13.23;;;7.50;;
1020;SDS011;499;42.648;23.270;2022-07-04T08:32:34;12.30;;;8.07;;
1020;SDS011;499;42.648;23.270;2022-07-04T08:35:01;8.30;;;7.60;;
1020;SDS011;499;42.648;23.270;2022-07-04T08:37:28;9.90;;;8.90;;
1020;SDS011;499;42.648;23.270;2022-07-04T08:39:57;10.83;;;8.50;;
1020;SDS011;499;42.648;23.270;2022-07-04T08:42:24;7.72;;;6.97;;
1020;SDS011;499;42.648;23.270;2022-07-04T08:44:53;8.87;;;7.97;;
1020;SDS011;499;42.648;23.270;2022-07-04T08:47:22;10.83;;;8.50;;
1020;SDS011;499;42.648;23.270;2022-07-04T08:49:52;9.40;;;7.73;;
1020;SDS011;499;42.648;23.270;2022-07-04T08:52:27;9.70;;;8.80;;
1020;SDS011;499;42.648;23.270;2022-07-04T08:55:03;11.93;;;8.50;;
1020;SDS011;499;42.648;23.270;2022-07-04T08:57:48;10.87;;;9.77;;
1020;SDS011;499;42.648;23.270;2022-07-04T09:00:34;9.73;;;8.83;;
1020;SDS011;499;42.648;23.270;2022-07-04T09:03:02;9.10;;;8.30;;
1020;SDS011;499;42.648;23.270;2022-07-04T09:05:30;9.80;;;8.35;;
1020;SDS011;499;42.648;23.270;2022-07-04T09:07:58;9.90;;;8.90;;
1020;SDS011;499;42.648;23.270;2022-07-04T09:10:26;10.07;;;9.17;;
1020;SDS011;499;42.648;23.270;2022-07-04T09:12:54;8.07;;;7.37;;
1020;SDS011;499;42.648;23.270;2022-07-04T09:15:23;9.77;;;8.80;;
1020;SDS011;499;42.648;23.270;2022-07-04T09:17:51;9.87;;;8.87;;
1020;SDS011;499;42.648;23.270;2022-07-04T09:20:18;9.53;;;8.10;;
1020;SDS011;499;42.648;23.270;2022-07-04T09:22:47;9.50;;;8.60;;
1020;SDS011;499;42.648;23.270;2022-07-04T09:25:16;9.67;;;8.37;;
1020;SDS011;499;42.648;23.270;2022-07-04T09:27:47;9.30;;;8.30;;
1020;SDS011;499;42.648;23.270;2022-07-04T09:30:15;9.43;;;8.57;;
1020;SDS011;499;42.648;23.270;2022-07-04T09:32:44;9.15;;;8.35;;
1020;SDS011;499;42.648;23.270;2022-07-04T09:35:12;10.03;;;9.00;;
1020;SDS011;499;42.648;23.270;2022-07-04T09:37:42;9.87;;;8.90;;
1020;SDS011;499;42.648;23.270;2022-07-04T09:40:11;9.73;;;8.93;;
1020;SDS011;499;42.648;23.270;2022-07-04T09:42:49;9.17;;;8.47;;
1020;SDS011;499;42.648;23.270;2022-07-04T09:45:17;9.70;;;8.90;;
1020;SDS011;499;42.648;23.270;2022-07-04T09:47:46;9.53;;;8.70;;
1020;SDS011;499;42.648;23.270;2022-07-04T09:50:15;10.20;;;9.40;;
1020;SDS011;499;42.648;23.270;2022-07-04T09:52:47;10.18;;;9.30;;
1020;SDS011;499;42.648;23.270;2022-07-04T09:55:20;12.20;;;9.23;;
1020;SDS011;499;42.648;23.270;2022-07-04T09:57:50;9.80;;;9.00;;
1020;SDS011;499;42.648;23.270;2022-07-04T10:00:21;10.67;;;9.77;;
1020;SDS011;499;42.648;23.270;2022-07-04T10:02:50;11.37;;;10.27;;
1020;SDS011;499;42.648;23.270;2022-07-04T10:05:19;9.53;;;8.60;;
1020;SDS011;499;42.648;23.270;2022-07-04T10:07:48;9.70;;;8.90;;
1020;SDS011;499;42.648;23.270;2022-07-04T10:10:29;10.30;;;9.40;;
1020;SDS011;499;42.648;23.270;2022-07-04T10:13:00;9.63;;;8.73;;
1020;SDS011;499;42.648;23.270;2022-07-04T10:15:28;10.77;;;9.87;;
1020;SDS011;499;42.648;23.270;2022-07-04T10:17:56;10.37;;;9.37;;
1020;SDS011;499;42.648;23.270;2022-07-04T10:20:23;10.03;;;9.10;;
1020;SDS011;499;42.648;23.270;2022-07-04T10:22:50;9.93;;;9.03;;
1020;SDS011;499;42.648;23.270;2022-07-04T10:25:18;10.17;;;9.33;;
1020;SDS011;499;42.648;23.270;2022-07-04T10:27:45;9.97;;;9.17;;
1020;SDS011;499;42.648;23.270;2022-07-04T10:30:15;9.80;;;9.00;;
1020;SDS011;499;42.648;23.270;2022-07-04T10:32:47;9.40;;;8.50;;
1020;SDS011;499;42.648;23.270;2022-07-04T10:35:15;9.40;;;8.60;;
1020;SDS011;499;42.648;23.270;2022-07-04T10:38:02;10.30;;;9.50;;
1020;SDS011;499;42.648;23.270;2022-07-04T10:40:40;10.37;;;9.47;;
1020;SDS011;499;42.648;23.270;2022-07-04T10:49:16;10.43;;;9.13;;
1020;SDS011;499;42.648;23.270;2022-07-04T10:51:45;9.60;;;8.80;;
1020;SDS011;499;42.648;23.270;2022-07-04T10:54:14;9.63;;;8.60;;
1020;SDS011;499;42.648;23.270;2022-07-04T10:56:51;9.30;;;8.50;;
1020;SDS011;499;42.648;23.270;2022-07-04T10:59:20;10.30;;;9.20;;
1020;SDS011;499;42.648;23.270;2022-07-04T11:01:53;10.70;;;9.73;;
1020;SDS011;499;42.648;23.270;2022-07-04T11:04:45;9.43;;;8.53;;
1020;SDS011;499;42.648;23.270;2022-07-04T11:07:14;10.83;;;9.73;;
1020;SDS011;499;42.648;23.270;2022-07-04T11:09:42;10.80;;;9.77;;
1020;SDS011;499;42.648;23.270;2022-07-04T11:12:09;9.67;;;8.87;;
1020;SDS011;499;42.648;23.270;2022-07-04T11:14:40;16.50;;;9.25;;
1020;SDS011;499;42.648;23.270;2022-07-04T11:17:10;9.57;;;8.70;;
1020;SDS011;499;42.648;23.270;2022-07-04T11:19:38;10.13;;;9.23;;
1020;SDS011;499;42.648;23.270;2022-07-04T11:22:07;9.03;;;8.23;;
1020;SDS011;499;42.648;23.270;2022-07-04T11:24:36;9.53;;;8.83;;
1020;SDS011;499;42.648;23.270;2022-07-04T11:27:06;9.57;;;8.77;;
1020;SDS011;499;42.648;23.270;2022-07-04T11:29:34;10.02;;;9.23;;
1020;SDS011;499;42.648;23.270;2022-07-04T11:32:02;10.15;;;9.25;;
1020;SDS011;499;42.648;23.270;2022-07-04T11:34:34;10.67;;;9.57;;
1020;SDS011;499;42.648;23.270;2022-07-04T11:37:01;10.23;;;9.33;;
1020;SDS011;499;42.648;23.270;2022-07-04T11:39:29;10.10;;;8.97;;
1020;SDS011;499;42.648;23.270;2022-07-04T11:41:57;9.30;;;8.50;;
1020;SDS011;499;42.648;23.270;2022-07-04T11:44:42;10.00;;;9.20;;
1020;SDS011;499;42.648;23.270;2022-07-04T11:47:33;10.50;;;9.60;;
1020;SDS011;499;42.648;23.270;2022-07-04T11:50:03;10.15;;;9.25;;
1020;SDS011;499;42.648;23.270;2022-07-04T11:52:43;10.40;;;9.50;;
1020;SDS011;499;42.648;23.270;2022-07-04T11:55:12;9.80;;;9.00;;
1020;SDS011;499;42.648;23.270;2022-07-04T11:57:40;10.60;;;8.73;;
1020;SDS011;499;42.648;23.270;2022-07-04T12:00:09;10.00;;;9.20;;
1020;SDS011;499;42.648;23.270;2022-07-04T12:02:38;9.60;;;8.73;;
1020;SDS011;499;42.648;23.270;2022-07-04T12:05:10;10.13;;;9.07;;
1020;SDS011;499;42.648;23.270;2022-07-04T12:07:39;9.93;;;9.13;;
1020;SDS011;499;42.648;23.270;2022-07-04T12:10:08;10.00;;;9.15;;
1020;SDS011;499;42.648;23.270;2022-07-04T12:12:49;10.27;;;9.47;;
1020;SDS011;499;42.648;23.270;2022-07-04T12:15:18;9.50;;;8.67;;
1020;SDS011;499;42.648;23.270;2022-07-04T12:17:49;8.90;;;8.20;;
1020;SDS011;499;42.648;23.270;2022-07-04T12:20:19;9.77;;;8.80;;
1020;SDS011;499;42.648;23.270;2022-07-04T12:22:49;10.13;;;8.90;;
1020;SDS011;499;42.648;23.270;2022-07-04T12:25:22;9.10;;;8.40;;
1020;SDS011;499;42.648;23.270;2022-07-04T12:27:57;10.60;;;9.80;;
1020;SDS011;499;42.648;23.270;2022-07-04T12:30:25;9.63;;;8.83;;
1020;SDS011;499;42.648;23.270;2022-07-04T12:32:53;10.20;;;9.03;;
1020;SDS011;499;42.648;23.270;2022-07-04T12:35:43;9.67;;;8.87;;
1020;SDS011;499;42.648;23.270;2022-07-04T12:38:13;9.40;;;8.70;;
1020;SDS011;499;42.648;23.270;2022-07-04T12:46:13;10.43;;;9.53;;
1020;SDS011;499;42.648;23.270;2022-07-04T12:48:41;10.27;;;9.33;;
1020;SDS011;499;42.648;23.270;2022-07-04T12:51:11;10.93;;;10.03;;
1020;SDS011;499;42.648;23.270;2022-07-04T12:53:40;10.07;;;9.27;;
1020;SDS011;499;42.648;23.270;2022-07-04T12:56:09;10.40;;;9.60;;
1020;SDS011;499;42.648;23.270;2022-07-04T12:58:36;10.73;;;9.73;;
1020;SDS011;499;42.648;23.270;2022-07-04T13:01:03;10.47;;;9.63;;
1020;SDS011;499;42.648;23.270;2022-07-04T13:03:31;10.50;;;9.50;;
1020;SDS011;499;42.648;23.270;2022-07-04T13:05:58;10.67;;;9.60;;
1020;SDS011;499;42.648;23.270;2022-07-04T13:08:26;9.27;;;8.47;;
1020;SDS011;499;42.648;23.270;2022-07-04T13:10:54;10.15;;;9.15;;
1020;SDS011;499;42.648;23.270;2022-07-04T13:13:35;10.23;;;9.17;;
1020;SDS011;499;42.648;23.270;2022-07-04T13:16:02;9.57;;;8.77;;
1020;SDS011;499;42.648;23.270;2022-07-04T13:18:29;9.47;;;8.67;;
1020;SDS011;499;42.648;23.270;2022-07-04T13:20:57;9.77;;;8.87;;
1020;SDS011;499;42.648;23.270;2022-07-04T13:23:24;10.13;;;9.13;;
1020;SDS011;499;42.648;23.270;2022-07-04T13:25:53;11.13;;;10.13;;
1020;SDS011;499;42.648;23.270;2022-07-04T13:28:20;10.30;;;9.40;;
1020;SDS011;499;42.648;23.270;2022-07-04T13:30:47;9.70;;;8.80;;
1020;SDS011;499;42.648;23.270;2022-07-04T13:33:14;10.17;;;9.27;;
1020;SDS011;499;42.648;23.270;2022-07-04T13:35:41;10.30;;;9.47;;
1020;SDS011;499;42.648;23.270;2022-07-04T13:38:09;10.20;;;9.40;;
1020;SDS011;499;42.648;23.270;2022-07-04T13:40:36;10.00;;;9.13;;
1020;SDS011;499;42.648;23.270;2022-07-04T13:43:04;9.70;;;9.00;;
1020;SDS011;499;42.648;23.270;2022-07-04T13:45:34;10.52;;;9.40;;
1020;SDS011;499;42.648;23.270;2022-07-04T13:48:03;12.30;;;9.17;;
1020;SDS011;499;42.648;23.270;2022-07-04T13:50:31;11.50;;;8.97;;
1020;SDS011;499;42.648;23.270;2022-07-04T13:53:02;10.63;;;9.33;;
1020;SDS011;499;42.648;23.270;2022-07-04T13:55:29;10.70;;;9.90;;
1020;SDS011;499;42.648;23.270;2022-07-04T13:57:57;9.30;;;8.50;;
1020;SDS011;499;42.648;23.270;2022-07-04T14:00:25;10.13;;;9.10;;
1020;SDS011;499;42.648;23.270;2022-07-04T14:02:53;10.30;;;9.30;;
1020;SDS011;499;42.648;23.270;2022-07-04T14:05:20;9.83;;;8.80;;
1020;SDS011;499;42.648;23.270;2022-07-04T14:07:47;10.93;;;10.03;;
1020;SDS011;499;42.648;23.270;2022-07-04T14:10:14;9.43;;;8.63;;
1020;SDS011;499;42.648;23.270;2022-07-04T14:12:41;10.13;;;9.23;;
1020;SDS011;499;42.648;23.270;2022-07-04T14:15:08;10.10;;;9.07;;
1020;SDS011;499;42.648;23.270;2022-07-04T14:17:37;9.87;;;9.07;;
1020;SDS011;499;42.648;23.270;2022-07-04T14:20:05;11.60;;;9.87;;
1020;SDS011;499;42.648;23.270;2022-07-04T14:22:34;10.53;;;9.30;;
1020;SDS011;499;42.648;23.270;2022-07-04T14:25:02;10.37;;;9.37;;
1020;SDS011;499;42.648;23.270;2022-07-04T14:27:29;10.17;;;9.37;;
1020;SDS011;499;42.648;23.270;2022-07-04T14:29:56;10.33;;;9.43;;
1020;SDS011;499;42.648;23.270;2022-07-04T14:32:24;10.50;;;9.00;;
1020;SDS011;499;42.648;23.270;2022-07-04T14:34:53;9.70;;;8.90;;
1020;SDS011;499;42.648;23.270;2022-07-04T14:37:20;9.80;;;8.90;;
1020;SDS011;499;42.648;23.270;2022-07-04T14:39:48;8.90;;;8.20;;
1020;SDS011;499;42.648;23.270;2022-07-04T14:42:15;9.90;;;9.00;;
1020;SDS011;499;42.648;23.270;2022-07-04T14:44:42;10.60;;;9.70;;
1020;SDS011;499;42.648;23.270;2022-07-04T14:47:09;9.80;;;8.93;;
1020;SDS011;499;42.648;23.270;2022-07-04T14:49:36;10.20;;;9.20;;
1020;SDS011;499;42.648;23.270;2022-07-04T14:52:05;10.90;;;9.40;;
1020;SDS011;499;42.648;23.270;2022-07-04T14:54:33;9.20;;;8.40;;
1020;SDS011;499;42.648;23.270;2022-07-04T14:57:00;10.70;;;9.63;;
1020;SDS011;499;42.648;23.270;2022-07-04T14:59:27;10.00;;;9.27;;
1020;SDS011;499;42.648;23.270;2022-07-04T15:01:54;9.90;;;9.00;;
1020;SDS011;499;42.648;23.270;2022-07-04T15:04:21;10.50;;;9.50;;
1020;SDS011;499;42.648;23.270;2022-07-04T15:06:48;9.20;;;8.50;;
1020;SDS011;499;42.648;23.270;2022-07-04T15:09:16;11.00;;;9.40;;
1020;SDS011;499;42.648;23.270;2022-07-04T15:11:43;9.57;;;8.87;;
1020;SDS011;499;42.648;23.270;2022-07-04T15:14:12;10.47;;;8.87;;
1020;SDS011;499;42.648;23.270;2022-07-04T15:16:39;9.37;;;8.53;;
1020;SDS011;499;42.648;23.270;2022-07-04T15:19:06;9.20;;;8.50;;
1020;SDS011;499;42.648;23.270;2022-07-04T15:21:33;10.10;;;8.67;;
1020;SDS011;499;42.648;23.270;2022-07-04T15:24:19;9.82;;;8.93;;